createdAt,value
2017-05-27T00:06:59.717Z,0
2017-05-27T00:17:09.107Z,0
2017-05-27T00:27:18.491Z,0
2017-05-27T00:37:27.842Z,0
2017-05-27T00:47:37.174Z,0
2017-05-27T00:57:46.520Z,0
2017-05-27T01:07:55.866Z,0
2017-05-27T01:18:05.258Z,0
2017-05-27T01:28:14.669Z,0
2017-05-27T01:38:24.061Z,0
2017-05-27T01:48:33.506Z,0
2017-05-27T01:58:42.908Z,0
2017-05-27T02:08:52.318Z,0
2017-05-27T02:19:01.762Z,0
2017-05-27T02:29:11.255Z,0
2017-05-27T02:39:20.737Z,0
2017-05-27T02:49:30.231Z,0
2017-05-27T02:59:39.751Z,0
2017-05-27T03:09:49.280Z,5
2017-05-27T03:19:58.880Z,15
2017-05-27T03:30:08.519Z,35
2017-05-27T03:40:18.116Z,60
2017-05-27T03:50:27.636Z,90
2017-05-27T04:00:37.026Z,115
2017-05-27T04:10:46.329Z,145
2017-05-27T04:20:55.519Z,175
2017-05-27T04:31:04.627Z,200
2017-05-27T04:41:13.632Z,220
2017-05-27T04:51:22.478Z,235
2017-05-27T05:01:31.266Z,245
2017-05-27T05:11:39.936Z,260
2017-05-27T05:21:48.473Z,280
2017-05-27T05:31:56.866Z,395
2017-05-27T05:42:05.234Z,510
2017-05-27T05:52:13.481Z,575
2017-05-27T06:02:21.621Z,760
2017-05-27T06:12:29.655Z,880
2017-05-27T06:22:37.603Z,1030
2017-05-27T06:32:45.501Z,965
2017-05-27T06:42:53.329Z,1285
2017-05-27T06:53:01.054Z,1455
2017-05-27T07:03:08.685Z,1525
2017-05-27T07:13:16.289Z,1810
2017-05-27T07:23:23.799Z,1835
2017-05-27T07:33:31.297Z,1980
2017-05-27T07:43:38.724Z,2070
2017-05-27T07:53:46.123Z,1570
2017-05-27T08:03:53.428Z,2330
2017-05-27T08:14:00.722Z,2420
2017-05-27T08:24:07.964Z,2400
2017-05-27T08:34:15.126Z,2660
2017-05-27T08:44:22.188Z,2615
2017-05-27T08:54:29.184Z,2795
2017-05-27T09:04:36.086Z,2910
2017-05-27T09:14:42.964Z,2940
2017-05-27T09:24:49.825Z,3185
2017-05-27T09:34:56.665Z,3230
2017-05-27T09:45:03.528Z,3420
2017-05-27T09:55:10.370Z,3485
2017-05-27T10:05:17.220Z,3415
2017-05-27T10:15:24.018Z,3555
2017-05-27T10:25:30.920Z,3555
2017-05-27T10:35:37.845Z,3505
2017-05-27T10:45:44.703Z,3665
2017-05-27T10:55:51.576Z,3625
2017-05-27T11:05:58.487Z,3670
2017-05-27T11:16:05.441Z,3855
2017-05-27T11:26:12.396Z,3900
2017-05-27T11:36:19.380Z,3845
2017-05-27T11:46:26.349Z,3765
2017-05-27T11:56:33.321Z,3640
2017-05-27T12:06:40.283Z,3590
2017-05-27T12:16:47.217Z,3575
2017-05-27T12:26:53.970Z,3360
2017-05-27T12:37:00.683Z,3345
2017-05-27T12:47:07.425Z,3310
2017-05-27T12:57:14.113Z,3145
2017-05-27T13:07:20.774Z,3170
2017-05-27T13:17:27.395Z,2990
2017-05-27T13:27:34.033Z,2895
2017-05-27T13:37:40.632Z,2720
2017-05-27T13:47:47.172Z,2620
2017-05-27T13:57:53.710Z,2470
2017-05-27T14:08:00.197Z,2340
2017-05-27T14:18:06.600Z,2295
2017-05-27T14:28:12.976Z,2285
2017-05-27T14:38:19.366Z,2245
2017-05-27T14:48:25.740Z,2510
2017-05-27T14:58:32.077Z,2155
2017-05-27T15:08:38.513Z,445
2017-05-27T15:18:45.229Z,1885
2017-05-27T15:28:51.771Z,1710
2017-05-27T15:38:58.182Z,1400
2017-05-27T15:49:04.482Z,1440
2017-05-27T15:59:10.735Z,1375
2017-05-27T16:09:16.917Z,1175
2017-05-27T16:19:23.191Z,1160
2017-05-27T16:29:29.584Z,940
2017-05-27T16:39:36.032Z,800
2017-05-27T16:49:42.533Z,485
2017-05-27T16:59:49.169Z,465
2017-05-27T17:09:55.865Z,465
2017-05-27T17:20:02.707Z,370
2017-05-27T17:30:09.812Z,470
2017-05-27T17:40:16.821Z,430
2017-05-27T17:50:23.846Z,380
2017-05-27T18:00:30.938Z,350
2017-05-27T18:10:38.082Z,305
2017-05-27T18:20:45.324Z,270
2017-05-27T18:30:52.652Z,220
2017-05-27T18:40:59.990Z,195
2017-05-27T18:51:07.450Z,145
2017-05-27T19:01:15.045Z,105
2017-05-27T19:11:22.827Z,70
2017-05-27T19:21:30.765Z,35
2017-05-27T19:31:38.831Z,15
2017-05-27T19:41:47.039Z,5
2017-05-27T19:51:55.365Z,0
2017-05-27T20:02:03.735Z,0
2017-05-27T20:12:12.132Z,0
2017-05-27T20:22:20.553Z,0
2017-05-27T20:32:29.005Z,0
2017-05-27T20:42:37.503Z,0
2017-05-27T20:52:46.009Z,0
2017-05-27T21:02:54.538Z,0
2017-05-27T21:13:02.995Z,0
2017-05-27T21:23:11.460Z,0
2017-05-27T21:33:19.907Z,0
2017-05-27T21:53:36.959Z,0
2017-05-27T22:03:45.491Z,0
2017-05-27T22:13:54.042Z,0
2017-05-27T22:24:02.586Z,0
2017-05-27T22:34:11.211Z,0
2017-05-27T22:44:19.766Z,0
2017-05-27T22:54:28.398Z,0
2017-05-27T23:04:37.023Z,0
2017-05-27T23:14:45.676Z,0
2017-05-27T23:24:54.358Z,0
2017-05-27T23:35:03.034Z,0
2017-05-27T23:45:11.708Z,0
2017-05-27T23:55:20.480Z,0
